createdAt,value
2023-03-15T00:00:45.718Z,9.10
2023-03-15T00:03:14.803Z,8.40
2023-03-15T00:05:45.655Z,8.67
2023-03-15T00:08:12.765Z,8.10
2023-03-15T00:10:43.160Z,8.53
2023-03-15T00:13:10.301Z,8.27
2023-03-15T00:15:44.392Z,8.30
2023-03-15T00:18:13.292Z,8.40
2023-03-15T00:20:40.129Z,8.57
2023-03-15T00:23:06.968Z,8.57
2023-03-15T00:25:36.500Z,10.00
2023-03-15T00:28:05.928Z,8.53
2023-03-15T00:30:33.128Z,8.60
2023-03-15T00:32:59.939Z,8.50
2023-03-15T00:35:27.132Z,8.90
2023-03-15T00:37:57.130Z,9.27
2023-03-15T00:40:24.472Z,9.20
2023-03-15T00:42:51.650Z,8.90
2023-03-15T00:45:21.891Z,8.73
2023-03-15T00:47:52.683Z,7.77
2023-03-15T00:50:19.992Z,6.30
2023-03-15T00:52:46.843Z,4.97
2023-03-15T00:55:15.351Z,2.10
2023-03-15T00:57:42.973Z,1.50
2023-03-15T01:00:11.841Z,1.40
2023-03-15T01:02:38.641Z,1.13
2023-03-15T01:05:09.155Z,0.90
2023-03-15T01:07:41.114Z,1.17
2023-03-15T01:10:08.081Z,1.00
2023-03-15T01:12:35.039Z,1.30
2023-03-15T01:15:02.450Z,1.33
2023-03-15T01:17:29.202Z,1.30
2023-03-15T01:20:00.944Z,1.20
2023-03-15T01:22:29.854Z,1.20
2023-03-15T01:24:56.691Z,1.00
2023-03-15T01:27:23.455Z,1.20
2023-03-15T01:29:50.358Z,1.30
2023-03-15T01:32:17.196Z,1.10
2023-03-15T01:34:48.750Z,1.40
2023-03-15T01:37:15.499Z,1.33
2023-03-15T01:39:42.741Z,1.40
2023-03-15T01:42:12.072Z,1.50
2023-03-15T01:45:00.309Z,1.50
2023-03-15T01:47:27.357Z,1.50
2023-03-15T01:50:07.300Z,1.70
2023-03-15T01:52:36.159Z,1.33
2023-03-15T01:55:11.185Z,1.53
2023-03-15T01:57:41.295Z,1.30
2023-03-15T02:00:18.074Z,1.30
2023-03-15T02:02:48.036Z,1.43
2023-03-15T02:05:21.022Z,1.50
2023-03-15T02:07:50.320Z,1.43
2023-03-15T02:10:36.102Z,1.50
2023-03-15T02:13:03.002Z,1.50
2023-03-15T02:15:32.249Z,1.40
2023-03-15T02:17:59.054Z,1.40
2023-03-15T02:20:34.788Z,1.30
2023-03-15T02:23:06.542Z,1.50
2023-03-15T02:26:02.391Z,1.40
2023-03-15T02:28:29.169Z,1.40
2023-03-15T02:30:58.638Z,1.20
2023-03-15T02:33:52.155Z,1.50
2023-03-15T02:36:26.941Z,1.27
2023-03-15T02:38:54.132Z,1.47
2023-03-15T02:41:37.886Z,1.37
2023-03-15T02:44:11.593Z,1.27
2023-03-15T02:46:38.363Z,1.47
2023-03-15T02:49:06.381Z,1.70
2023-03-15T02:51:33.153Z,1.80
2023-03-15T02:54:02.071Z,1.30
2023-03-15T02:56:28.847Z,1.40
2023-03-15T02:58:58.084Z,1.30
2023-03-15T03:01:27.190Z,1.70
2023-03-15T03:03:56.462Z,1.30
2023-03-15T03:06:25.456Z,1.80
2023-03-15T03:08:54.594Z,1.97
2023-03-15T03:11:21.400Z,1.80
2023-03-15T03:13:51.226Z,2.13
2023-03-15T03:16:18.036Z,1.50
2023-03-15T03:18:44.835Z,2.00
2023-03-15T03:21:11.589Z,2.17
2023-03-15T03:23:41.242Z,1.40
2023-03-15T03:26:16.553Z,1.30
2023-03-15T03:28:44.940Z,1.40
2023-03-15T03:31:22.157Z,1.50
2023-03-15T03:33:49.034Z,1.73
2023-03-15T03:36:16.969Z,1.83
2023-03-15T03:38:44.951Z,1.80
2023-03-15T03:41:11.926Z,1.70
2023-03-15T03:43:38.723Z,1.60
2023-03-15T03:46:05.804Z,2.07
2023-03-15T03:48:34.801Z,2.07
2023-03-15T03:51:03.865Z,2.10
2023-03-15T03:53:30.649Z,2.10
2023-03-15T03:55:57.536Z,2.17
2023-03-15T03:58:24.319Z,1.47
2023-03-15T04:00:54.332Z,2.53
2023-03-15T04:03:27.378Z,2.70
2023-03-15T04:05:57.284Z,2.40
2023-03-15T04:08:24.464Z,2.43
2023-03-15T04:10:55.295Z,2.40
2023-03-15T04:13:24.805Z,2.50
2023-03-15T04:15:51.952Z,2.60
2023-03-15T04:18:18.805Z,2.80
2023-03-15T04:20:49.807Z,3.10
2023-03-15T04:23:19.141Z,3.40
2023-03-15T04:25:51.743Z,3.37
2023-03-15T04:28:19.258Z,3.30
2023-03-15T04:30:47.948Z,3.27
2023-03-15T04:33:14.726Z,3.53
2023-03-15T04:35:42.713Z,3.10
2023-03-15T04:38:09.801Z,3.40
2023-03-15T04:40:39.158Z,3.50
2023-03-15T04:43:11.513Z,3.10
2023-03-15T04:45:38.362Z,3.10
2023-03-15T04:48:05.278Z,3.00
2023-03-15T04:50:34.520Z,3.20
2023-03-15T04:53:01.694Z,3.13
2023-03-15T04:55:28.471Z,2.77
2023-03-15T04:57:55.527Z,3.10
2023-03-15T05:00:22.323Z,2.97
2023-03-15T05:02:54.932Z,3.00
2023-03-15T05:05:23.479Z,3.37
2023-03-15T05:07:50.243Z,3.47
2023-03-15T05:10:22.432Z,2.63
2023-03-15T05:12:49.229Z,3.17
2023-03-15T05:15:16.094Z,2.97
2023-03-15T05:17:43.161Z,2.67
2023-03-15T05:20:13.259Z,2.93
2023-03-15T05:22:40.883Z,3.20
2023-03-15T05:25:08.340Z,2.97
2023-03-15T05:27:35.224Z,3.00
2023-03-15T05:30:04.831Z,2.93
2023-03-15T05:32:34.853Z,4.33
2023-03-15T05:35:02.137Z,4.40
2023-03-15T05:37:29.028Z,4.30
2023-03-15T05:39:56.062Z,4.73
2023-03-15T05:42:26.275Z,4.57
2023-03-15T05:44:53.623Z,4.30
2023-03-15T05:47:20.573Z,4.00
2023-03-15T05:49:49.476Z,4.37
2023-03-15T05:52:16.616Z,4.20
2023-03-15T05:54:45.943Z,4.67
2023-03-15T05:57:15.228Z,4.43
2023-03-15T05:59:46.379Z,5.23
2023-03-15T06:02:13.200Z,5.03
2023-03-15T06:04:40.090Z,5.53
2023-03-15T06:07:09.235Z,5.10
2023-03-15T06:09:36.566Z,5.53
2023-03-15T06:12:03.628Z,5.53
2023-03-15T06:14:32.778Z,6.30
2023-03-15T06:16:59.669Z,5.30
2023-03-15T06:19:29.533Z,5.50
2023-03-15T06:21:58.695Z,5.53
2023-03-15T06:24:27.978Z,5.67
2023-03-15T06:26:54.932Z,5.33
2023-03-15T06:29:21.983Z,6.07
2023-03-15T06:31:51.166Z,7.53
2023-03-15T06:34:17.953Z,6.73
2023-03-15T06:36:49.993Z,5.83
2023-03-15T06:39:16.830Z,6.03
2023-03-15T06:41:43.665Z,6.40
2023-03-15T06:44:10.696Z,5.97
2023-03-15T06:46:37.594Z,5.83
2023-03-15T06:49:09.019Z,5.90
2023-03-15T06:51:35.888Z,6.20
2023-03-15T06:54:05.152Z,5.57
2023-03-15T06:56:37.412Z,5.60
2023-03-15T06:59:04.578Z,6.17
2023-03-15T07:01:31.477Z,6.60
2023-03-15T07:03:58.269Z,6.23
2023-03-15T07:06:25.344Z,6.10
2023-03-15T07:08:54.256Z,6.30
2023-03-15T07:11:21.016Z,6.00
2023-03-15T07:13:47.896Z,6.80
2023-03-15T07:16:14.660Z,6.67
2023-03-15T07:18:43.728Z,6.07
2023-03-15T07:21:10.537Z,6.63
2023-03-15T07:23:37.314Z,6.33
2023-03-15T07:26:06.306Z,7.20
2023-03-15T07:28:33.197Z,7.00
2023-03-15T07:31:01.883Z,7.00
2023-03-15T07:33:32.372Z,7.33
2023-03-15T07:36:04.255Z,6.97
2023-03-15T07:38:33.825Z,7.27
2023-03-15T07:41:09.345Z,7.40
2023-03-15T07:43:38.628Z,8.60
2023-03-15T07:46:08.122Z,7.07
2023-03-15T07:48:42.112Z,7.13
2023-03-15T07:51:11.469Z,7.37
2023-03-15T07:53:38.273Z,6.83
2023-03-15T07:56:05.445Z,7.13
2023-03-15T07:58:32.247Z,7.10
2023-03-15T08:01:04.143Z,6.40
2023-03-15T08:03:31.611Z,6.30
2023-03-15T08:06:03.552Z,5.93
2023-03-15T08:08:32.779Z,6.13
2023-03-15T08:10:59.831Z,5.80
2023-03-15T08:13:26.606Z,6.70
2023-03-15T08:15:53.450Z,6.53
2023-03-15T08:18:20.269Z,6.30
2023-03-15T08:20:47.058Z,5.83
2023-03-15T08:23:16.527Z,5.57
2023-03-15T08:25:46.270Z,6.13
2023-03-15T08:28:13.109Z,6.10
2023-03-15T08:30:40.250Z,5.70
2023-03-15T08:33:07.836Z,5.37
2023-03-15T08:35:37.236Z,6.03
2023-03-15T08:38:04.031Z,5.83
2023-03-15T08:40:30.931Z,5.80
2023-03-15T08:42:57.890Z,5.43
2023-03-15T08:45:27.445Z,5.27
2023-03-15T08:48:00.286Z,5.37
2023-03-15T08:50:31.811Z,4.80
2023-03-15T08:52:58.581Z,5.00
2023-03-15T08:55:27.915Z,4.73
2023-03-15T08:57:54.770Z,4.03
2023-03-15T09:00:23.112Z,4.20
2023-03-15T09:02:52.016Z,4.73
2023-03-15T09:05:24.533Z,3.83
2023-03-15T09:07:53.170Z,4.47
2023-03-15T09:10:20.186Z,4.30
2023-03-15T09:12:51.082Z,4.63
2023-03-15T09:15:21.729Z,4.70
2023-03-15T09:17:50.363Z,4.60
2023-03-15T09:20:22.015Z,4.33
2023-03-15T09:22:53.618Z,4.63
2023-03-15T09:25:20.540Z,4.50
2023-03-15T09:27:47.354Z,4.90
2023-03-15T09:30:14.435Z,4.40
2023-03-15T09:32:41.534Z,3.90
2023-03-15T09:35:09.114Z,4.00
2023-03-15T09:37:42.493Z,4.60
2023-03-15T09:40:22.762Z,4.13
2023-03-15T09:43:07.741Z,4.03
2023-03-15T09:45:40.792Z,3.93
2023-03-15T09:48:17.633Z,4.00
2023-03-15T09:51:11.808Z,4.10
2023-03-15T09:53:56.839Z,4.60
2023-03-15T09:56:40.862Z,4.63
2023-03-15T09:59:09.235Z,5.13
2023-03-15T10:01:37.699Z,4.63
2023-03-15T10:04:28.995Z,4.77
2023-03-15T10:06:59.902Z,4.30
2023-03-15T10:09:29.734Z,4.50
2023-03-15T10:12:05.913Z,4.80
2023-03-15T10:14:57.562Z,4.57
2023-03-15T10:17:59.543Z,4.57
2023-03-15T10:20:28.192Z,4.60
2023-03-15T10:23:31.202Z,4.57
2023-03-15T10:25:57.966Z,4.90
2023-03-15T10:28:26.025Z,4.17
2023-03-15T10:30:52.950Z,4.30
2023-03-15T10:33:33.026Z,5.10
2023-03-15T10:36:10.721Z,4.50
2023-03-15T10:38:38.946Z,4.53
2023-03-15T10:41:06.843Z,4.33
2023-03-15T10:43:36.946Z,4.43
2023-03-15T10:46:21.371Z,4.80
2023-03-15T10:49:01.077Z,4.23
2023-03-15T10:51:32.874Z,4.50
2023-03-15T10:54:07.212Z,4.00
2023-03-15T10:56:42.428Z,4.77
2023-03-15T10:59:19.205Z,4.20
2023-03-15T11:01:48.296Z,4.90
2023-03-15T11:04:27.470Z,4.00
2023-03-15T11:06:57.030Z,4.23
2023-03-15T11:09:30.359Z,5.03
2023-03-15T11:12:01.151Z,4.40
2023-03-15T11:14:36.908Z,4.30
2023-03-15T11:17:04.319Z,3.97
2023-03-15T11:19:37.948Z,4.17
2023-03-15T11:22:06.970Z,4.43
2023-03-15T11:24:34.090Z,4.60
2023-03-15T11:27:04.449Z,4.83
2023-03-15T11:29:32.673Z,4.00
2023-03-15T11:32:06.162Z,4.97
2023-03-15T11:34:48.804Z,4.07
2023-03-15T11:37:47.466Z,3.83
2023-03-15T11:40:26.178Z,3.40
2023-03-15T11:43:03.696Z,3.50
2023-03-15T11:45:39.682Z,3.27
2023-03-15T11:48:42.438Z,2.63
2023-03-15T11:51:11.598Z,2.43
2023-03-15T11:54:06.727Z,2.63
2023-03-15T11:56:56.317Z,3.00
2023-03-15T11:59:28.765Z,3.20
2023-03-15T12:02:26.408Z,2.77
2023-03-15T12:04:57.251Z,2.97
2023-03-15T12:07:35.225Z,3.00
2023-03-15T12:10:05.052Z,3.13
2023-03-15T12:12:31.867Z,3.70
2023-03-15T12:15:20.479Z,3.53
2023-03-15T12:18:00.360Z,3.13
2023-03-15T12:20:43.007Z,3.43
2023-03-15T12:23:19.009Z,3.57
2023-03-15T12:26:27.729Z,3.20
2023-03-15T12:29:06.881Z,3.10
2023-03-15T12:31:54.609Z,3.47
2023-03-15T12:34:25.694Z,3.80
2023-03-15T12:36:57.055Z,4.23
2023-03-15T12:39:51.259Z,3.83
2023-03-15T12:42:33.172Z,3.90
2023-03-15T12:45:20.492Z,3.90
2023-03-15T12:48:13.955Z,4.23
2023-03-15T12:50:47.063Z,4.00
2023-03-15T12:53:36.999Z,3.70
2023-03-15T12:56:18.894Z,3.67
2023-03-15T12:58:51.550Z,3.57
2023-03-15T13:01:18.364Z,4.17
2023-03-15T13:03:45.773Z,4.80
2023-03-15T13:06:27.973Z,4.60
2023-03-15T13:09:12.665Z,4.13
2023-03-15T13:11:44.434Z,4.47
2023-03-15T13:14:36.002Z,4.80
2023-03-15T13:17:23.592Z,3.90
2023-03-15T13:19:57.750Z,3.30
2023-03-15T13:22:54.930Z,3.47
2023-03-15T13:25:28.934Z,3.67
2023-03-15T13:27:56.553Z,3.77
2023-03-15T13:30:41.251Z,4.17
2023-03-15T13:33:24.590Z,3.60
2023-03-15T13:35:58.283Z,3.67
2023-03-15T13:38:27.704Z,3.30
2023-03-15T13:40:57.767Z,3.47
2023-03-15T13:43:30.132Z,3.67
2023-03-15T13:45:59.897Z,3.60
2023-03-15T13:48:31.141Z,4.47
2023-03-15T13:51:08.452Z,3.87
2023-03-15T13:53:48.979Z,3.93
2023-03-15T13:56:18.301Z,4.10
2023-03-15T13:58:47.599Z,4.50
2023-03-15T14:01:14.543Z,3.80
2023-03-15T14:03:46.540Z,4.17
2023-03-15T14:06:13.980Z,4.07
2023-03-15T14:08:40.842Z,4.30
2023-03-15T14:11:12.241Z,4.40
2023-03-15T14:13:54.517Z,4.40
2023-03-15T14:16:57.244Z,5.10
2023-03-15T14:19:31.873Z,4.87
2023-03-15T14:22:19.927Z,5.10
2023-03-15T14:24:53.248Z,5.20
2023-03-15T14:27:26.602Z,4.83
2023-03-15T14:29:57.679Z,4.80
2023-03-15T14:32:37.853Z,4.07
2023-03-15T14:35:24.314Z,4.90
2023-03-15T14:38:04.265Z,4.97
2023-03-15T14:40:38.637Z,4.30
2023-03-15T14:43:06.476Z,4.30
2023-03-15T14:45:34.070Z,4.63
2023-03-15T14:48:04.135Z,4.87
2023-03-15T14:50:43.676Z,5.63
2023-03-15T14:53:14.918Z,4.60
2023-03-15T14:55:41.690Z,5.40
2023-03-15T14:58:17.283Z,5.20
2023-03-15T15:00:47.569Z,4.27
2023-03-15T15:03:35.645Z,4.63
2023-03-15T15:06:04.750Z,4.37
2023-03-15T15:08:31.582Z,4.27
2023-03-15T15:10:58.455Z,3.73
2023-03-15T15:13:26.973Z,4.27
2023-03-15T15:15:56.466Z,4.03
2023-03-15T15:18:30.019Z,3.90
2023-03-15T15:20:57.530Z,4.47
2023-03-15T15:23:39.594Z,4.40
2023-03-15T15:26:27.062Z,4.60
2023-03-15T15:28:53.850Z,4.83
2023-03-15T15:31:25.041Z,4.80
2023-03-15T15:33:52.662Z,4.73
2023-03-15T15:36:22.529Z,4.73
2023-03-15T15:38:49.329Z,4.57
2023-03-15T15:41:26.242Z,4.47
2023-03-15T15:43:53.073Z,4.97
2023-03-15T15:46:23.915Z,4.90
2023-03-15T15:48:51.804Z,5.07
2023-03-15T15:51:32.338Z,5.50
2023-03-15T15:53:59.878Z,5.03
2023-03-15T15:56:40.113Z,4.60
2023-03-15T15:59:08.613Z,4.87
2023-03-15T16:01:36.595Z,4.53
2023-03-15T16:04:06.314Z,5.20
2023-03-15T16:06:35.502Z,5.73
2023-03-15T16:09:02.430Z,5.40
2023-03-15T16:11:31.665Z,5.70
2023-03-15T16:14:00.737Z,5.07
2023-03-15T16:16:32.288Z,5.13
2023-03-15T16:18:59.234Z,5.87
2023-03-15T16:21:43.456Z,5.30
2023-03-15T16:24:13.910Z,4.60
2023-03-15T16:26:41.000Z,4.17
2023-03-15T16:29:35.114Z,4.23
2023-03-15T16:32:16.882Z,4.43
2023-03-15T16:34:46.506Z,3.33
2023-03-15T16:37:17.618Z,3.30
2023-03-15T16:39:48.961Z,3.63
2023-03-15T16:42:18.897Z,3.97
2023-03-15T16:44:45.652Z,3.23
2023-03-15T16:47:12.462Z,3.50
2023-03-15T16:49:39.277Z,3.87
2023-03-15T16:52:08.640Z,3.40
2023-03-15T16:54:41.322Z,4.10
2023-03-15T16:57:21.794Z,3.30
2023-03-15T16:59:48.883Z,3.80
2023-03-15T17:02:22.970Z,4.47
2023-03-15T17:04:55.151Z,4.10
2023-03-15T17:07:32.802Z,4.23
2023-03-15T17:10:02.733Z,4.00
2023-03-15T17:12:31.969Z,4.10
2023-03-15T17:15:04.445Z,4.40
2023-03-15T17:17:35.951Z,6.40
2023-03-15T17:20:06.499Z,4.67
2023-03-15T17:22:35.420Z,4.37
2023-03-15T17:25:04.766Z,4.40
2023-03-15T17:27:36.389Z,4.40
2023-03-15T17:30:11.636Z,5.13
2023-03-15T17:32:38.589Z,4.77
2023-03-15T17:35:08.580Z,5.40
2023-03-15T17:37:37.843Z,5.07
2023-03-15T17:40:12.462Z,5.90
2023-03-15T17:42:39.312Z,5.80
2023-03-15T17:45:20.770Z,5.47
2023-03-15T17:47:48.684Z,4.60
2023-03-15T17:50:18.001Z,5.37
2023-03-15T17:52:44.858Z,5.37
2023-03-15T17:55:18.275Z,5.50
2023-03-15T17:57:54.045Z,5.30
2023-03-15T18:00:24.198Z,5.40
2023-03-15T18:02:55.655Z,5.57
2023-03-15T18:05:27.074Z,5.30
2023-03-15T18:08:00.117Z,5.53
2023-03-15T18:10:31.610Z,5.90
2023-03-15T18:12:58.383Z,5.77
2023-03-15T18:15:25.129Z,5.87
2023-03-15T18:17:52.002Z,5.87
2023-03-15T18:20:18.942Z,5.97
2023-03-15T18:22:45.754Z,6.33
2023-03-15T18:25:16.966Z,6.73
2023-03-15T18:27:44.153Z,6.30
2023-03-15T18:30:15.129Z,6.43
2023-03-15T18:32:44.414Z,7.07
2023-03-15T18:35:16.282Z,6.37
2023-03-15T18:37:43.212Z,6.57
2023-03-15T18:40:14.374Z,7.17
2023-03-15T18:42:41.935Z,7.20
2023-03-15T18:45:18.172Z,7.50
2023-03-15T18:47:45.089Z,6.60
2023-03-15T18:50:12.546Z,7.10
2023-03-15T18:52:39.839Z,7.63
2023-03-15T18:55:11.656Z,8.07
2023-03-15T18:57:41.444Z,7.80
2023-03-15T19:00:15.782Z,7.83
2023-03-15T19:02:46.115Z,8.77
2023-03-15T19:05:13.588Z,9.17
2023-03-15T19:07:40.501Z,9.67
2023-03-15T19:10:10.585Z,9.87
2023-03-15T19:12:37.568Z,10.80
2023-03-15T19:15:05.759Z,9.43
2023-03-15T19:17:32.797Z,10.43
2023-03-15T19:19:59.578Z,9.90
2023-03-15T19:22:29.142Z,9.80
2023-03-15T19:24:55.898Z,9.53
2023-03-15T19:27:22.732Z,9.13
2023-03-15T19:29:49.516Z,9.50
2023-03-15T19:32:16.421Z,9.87
2023-03-15T19:34:43.234Z,9.80
2023-03-15T19:37:12.589Z,10.00
2023-03-15T19:39:42.163Z,11.07
2023-03-15T19:42:11.473Z,11.07
2023-03-15T19:44:38.263Z,10.67
2023-03-15T19:47:05.114Z,10.40
2023-03-15T19:49:31.936Z,9.90
2023-03-15T19:51:58.733Z,12.27
2023-03-15T19:54:25.546Z,11.00
2023-03-15T19:56:54.009Z,10.87
2023-03-15T19:59:20.810Z,11.30
2023-03-15T20:01:47.649Z,11.60
2023-03-15T20:04:14.610Z,12.07
2023-03-15T20:06:43.910Z,12.37
2023-03-15T20:09:12.037Z,12.43
2023-03-15T20:11:38.833Z,12.10
2023-03-15T20:14:07.780Z,11.33
2023-03-15T20:16:34.592Z,11.87
2023-03-15T20:19:03.949Z,11.80
2023-03-15T20:21:30.763Z,11.93
2023-03-15T20:23:57.683Z,10.83
2023-03-15T20:26:25.231Z,11.43
2023-03-15T20:28:52.220Z,11.20
2023-03-15T20:31:19.278Z,11.30
2023-03-15T20:33:48.831Z,11.50
2023-03-15T20:36:16.359Z,12.17
2023-03-15T20:38:43.445Z,11.93
2023-03-15T20:41:10.256Z,10.93
2023-03-15T20:43:39.514Z,12.20
2023-03-15T20:46:06.428Z,11.33
2023-03-15T20:48:36.781Z,11.50
2023-03-15T20:51:04.154Z,12.20
2023-03-15T20:53:34.930Z,11.50
2023-03-15T20:56:02.077Z,11.87
2023-03-15T20:58:31.185Z,10.93
2023-03-15T21:01:13.154Z,12.43
2023-03-15T21:03:42.996Z,11.40
2023-03-15T21:06:09.843Z,12.30
2023-03-15T21:08:36.920Z,11.87
2023-03-15T21:11:04.587Z,11.67
2023-03-15T21:13:34.197Z,12.00
2023-03-15T21:16:05.716Z,11.73
2023-03-15T21:18:36.125Z,10.47
2023-03-15T21:21:05.365Z,11.53
2023-03-15T21:23:34.815Z,11.23
2023-03-15T21:26:03.441Z,11.73
2023-03-15T21:28:30.674Z,11.33
2023-03-15T21:30:57.836Z,11.50
2023-03-15T21:33:28.395Z,11.77
2023-03-15T21:35:59.160Z,11.90
2023-03-15T21:38:31.445Z,12.17
2023-03-15T21:40:59.513Z,13.00
2023-03-15T21:43:30.714Z,12.77
2023-03-15T21:46:04.684Z,13.30
2023-03-15T21:48:32.333Z,13.80
2023-03-15T21:50:59.445Z,13.70
2023-03-15T21:53:29.043Z,14.87
2023-03-15T21:55:57.130Z,15.50
2023-03-15T21:58:24.681Z,15.53
2023-03-15T22:01:04.934Z,17.20
2023-03-15T22:03:32.230Z,14.80
2023-03-15T22:05:58.995Z,16.50
2023-03-15T22:08:25.838Z,16.17
2023-03-15T22:10:56.510Z,15.87
2023-03-15T22:13:23.321Z,15.47
2023-03-15T22:15:50.244Z,15.40
2023-03-15T22:18:17.022Z,15.30
2023-03-15T22:20:46.360Z,14.67
2023-03-15T22:23:13.169Z,15.70
2023-03-15T22:25:42.290Z,16.17
2023-03-15T22:28:11.219Z,16.57
2023-03-15T22:30:38.028Z,15.07
2023-03-15T22:33:04.876Z,15.33
2023-03-15T22:35:31.739Z,14.73
2023-03-15T22:37:58.530Z,16.03
2023-03-15T22:40:26.671Z,15.77
2023-03-15T22:42:53.704Z,15.53
2023-03-15T22:45:21.223Z,15.50
2023-03-15T22:47:51.193Z,15.90
2023-03-15T22:50:18.046Z,16.83
2023-03-15T22:52:44.813Z,16.87
2023-03-15T22:55:11.928Z,16.83
2023-03-15T22:57:38.805Z,15.57
2023-03-15T23:00:07.476Z,15.13
2023-03-15T23:02:36.532Z,16.17
2023-03-15T23:05:05.882Z,15.10
2023-03-15T23:07:35.151Z,15.40
2023-03-15T23:10:01.959Z,15.43
2023-03-15T23:12:36.339Z,14.60
2023-03-15T23:15:06.562Z,16.40
2023-03-15T23:17:33.328Z,15.80
2023-03-15T23:20:00.111Z,14.47
2023-03-15T23:22:26.915Z,14.20
2023-03-15T23:24:57.838Z,14.33
2023-03-15T23:27:26.114Z,15.13
2023-03-15T23:29:54.860Z,14.40
2023-03-15T23:32:25.182Z,14.07
2023-03-15T23:34:53.652Z,14.73
2023-03-15T23:37:20.796Z,14.67
2023-03-15T23:39:47.905Z,14.70
2023-03-15T23:42:14.673Z,14.30
2023-03-15T23:44:41.446Z,15.60
2023-03-15T23:47:12.345Z,14.53
2023-03-15T23:49:42.687Z,14.30
2023-03-15T23:52:09.561Z,14.77
2023-03-15T23:54:41.219Z,14.83
2023-03-15T23:57:12.722Z,14.50
2023-03-15T23:59:39.749Z,14.30
